sensor_id;sensor_type;location;lat;lon;timestamp;P1;durP1;ratioP1;P2;durP2;ratioP2
34805;SDS011;65084;42.196;25.326;2023-08-17T00:00:07;6.40;;;3.53;;
34805;SDS011;65084;42.196;25.326;2023-08-17T00:02:36;5.60;;;3.25;;
34805;SDS011;65084;42.196;25.326;2023-08-17T00:05:04;4.18;;;3.22;;
34805;SDS011;65084;42.196;25.326;2023-08-17T00:07:32;5.32;;;3.05;;
34805;SDS011;65084;42.196;25.326;2023-08-17T00:09:59;7.80;;;3.47;;
34805;SDS011;65084;42.196;25.326;2023-08-17T00:12:27;4.60;;;3.03;;
34805;SDS011;65084;42.196;25.326;2023-08-17T00:14:55;4.03;;;3.40;;
34805;SDS011;65084;42.196;25.326;2023-08-17T00:17:22;8.48;;;4.07;;
34805;SDS011;65084;42.196;25.326;2023-08-17T00:19:51;7.05;;;3.20;;
34805;SDS011;65084;42.196;25.326;2023-08-17T00:22:18;3.83;;;3.00;;
34805;SDS011;65084;42.196;25.326;2023-08-17T00:24:45;6.20;;;3.72;;
34805;SDS011;65084;42.196;25.326;2023-08-17T00:27:12;11.23;;;3.42;;
34805;SDS011;65084;42.196;25.326;2023-08-17T00:29:40;10.80;;;3.38;;
34805;SDS011;65084;42.196;25.326;2023-08-17T00:32:07;9.65;;;3.38;;
34805;SDS011;65084;42.196;25.326;2023-08-17T00:34:34;5.10;;;3.33;;
34805;SDS011;65084;42.196;25.326;2023-08-17T00:37:03;5.82;;;3.38;;
34805;SDS011;65084;42.196;25.326;2023-08-17T00:39:30;12.63;;;3.65;;
34805;SDS011;65084;42.196;25.326;2023-08-17T00:41:57;7.55;;;3.20;;
34805;SDS011;65084;42.196;25.326;2023-08-17T00:44:25;5.97;;;3.50;;
34805;SDS011;65084;42.196;25.326;2023-08-17T00:46:52;7.03;;;3.65;;
34805;SDS011;65084;42.196;25.326;2023-08-17T00:49:19;5.63;;;3.10;;
34805;SDS011;65084;42.196;25.326;2023-08-17T00:51:47;5.90;;;3.45;;
34805;SDS011;65084;42.196;25.326;2023-08-17T00:54:16;4.15;;;3.30;;
34805;SDS011;65084;42.196;25.326;2023-08-17T00:56:46;3.95;;;3.25;;
34805;SDS011;65084;42.196;25.326;2023-08-17T00:59:13;4.80;;;3.47;;
34805;SDS011;65084;42.196;25.326;2023-08-17T01:01:40;5.82;;;3.88;;
34805;SDS011;65084;42.196;25.326;2023-08-17T01:04:08;4.20;;;3.80;;
34805;SDS011;65084;42.196;25.326;2023-08-17T01:06:35;5.13;;;3.47;;
34805;SDS011;65084;42.196;25.326;2023-08-17T01:09:02;3.78;;;3.45;;
34805;SDS011;65084;42.196;25.326;2023-08-17T01:11:32;3.50;;;3.20;;
34805;SDS011;65084;42.196;25.326;2023-08-17T01:14:02;7.45;;;3.15;;
34805;SDS011;65084;42.196;25.326;2023-08-17T01:16:32;8.00;;;3.45;;
34805;SDS011;65084;42.196;25.326;2023-08-17T01:19:00;9.15;;;3.90;;
34805;SDS011;65084;42.196;25.326;2023-08-17T01:21:29;10.77;;;3.20;;
34805;SDS011;65084;42.196;25.326;2023-08-17T01:24:02;8.23;;;3.60;;
34805;SDS011;65084;42.196;25.326;2023-08-17T01:26:30;8.57;;;3.78;;
34805;SDS011;65084;42.196;25.326;2023-08-17T01:28:57;5.18;;;3.58;;
34805;SDS011;65084;42.196;25.326;2023-08-17T01:31:26;3.85;;;3.45;;
34805;SDS011;65084;42.196;25.326;2023-08-17T01:33:56;6.47;;;4.13;;
34805;SDS011;65084;42.196;25.326;2023-08-17T01:36:26;5.80;;;3.92;;
34805;SDS011;65084;42.196;25.326;2023-08-17T01:38:53;7.90;;;3.92;;
34805;SDS011;65084;42.196;25.326;2023-08-17T01:41:23;8.68;;;4.28;;
34805;SDS011;65084;42.196;25.326;2023-08-17T01:43:51;10.30;;;3.28;;
34805;SDS011;65084;42.196;25.326;2023-08-17T01:46:18;7.30;;;3.08;;
34805;SDS011;65084;42.196;25.326;2023-08-17T01:48:46;12.88;;;3.47;;
34805;SDS011;65084;42.196;25.326;2023-08-17T01:51:16;10.48;;;3.70;;
34805;SDS011;65084;42.196;25.326;2023-08-17T01:53:44;5.75;;;3.65;;
34805;SDS011;65084;42.196;25.326;2023-08-17T01:56:11;4.35;;;3.75;;
34805;SDS011;65084;42.196;25.326;2023-08-17T01:58:39;6.35;;;3.53;;
34805;SDS011;65084;42.196;25.326;2023-08-17T02:01:07;7.35;;;4.22;;
34805;SDS011;65084;42.196;25.326;2023-08-17T02:03:34;3.88;;;3.25;;
34805;SDS011;65084;42.196;25.326;2023-08-17T02:06:01;4.75;;;3.63;;
34805;SDS011;65084;42.196;25.326;2023-08-17T02:08:29;6.63;;;3.88;;
34805;SDS011;65084;42.196;25.326;2023-08-17T02:10:56;7.28;;;3.33;;
34805;SDS011;65084;42.196;25.326;2023-08-17T02:13:23;8.48;;;3.25;;
34805;SDS011;65084;42.196;25.326;2023-08-17T02:15:53;5.40;;;4.25;;
34805;SDS011;65084;42.196;25.326;2023-08-17T02:18:21;8.65;;;3.83;;
34805;SDS011;65084;42.196;25.326;2023-08-17T02:20:48;11.25;;;3.58;;
34805;SDS011;65084;42.196;25.326;2023-08-17T02:23:15;7.13;;;3.97;;
34805;SDS011;65084;42.196;25.326;2023-08-17T02:25:43;18.33;;;3.63;;
34805;SDS011;65084;42.196;25.326;2023-08-17T02:28:10;6.63;;;3.58;;
34805;SDS011;65084;42.196;25.326;2023-08-17T02:30:37;12.02;;;3.95;;
34805;SDS011;65084;42.196;25.326;2023-08-17T02:33:06;9.05;;;3.53;;
34805;SDS011;65084;42.196;25.326;2023-08-17T02:35:33;5.50;;;3.63;;
34805;SDS011;65084;42.196;25.326;2023-08-17T02:38:00;9.05;;;3.78;;
34805;SDS011;65084;42.196;25.326;2023-08-17T02:40:28;3.83;;;3.30;;
34805;SDS011;65084;42.196;25.326;2023-08-17T02:42:55;4.90;;;3.38;;
34805;SDS011;65084;42.196;25.326;2023-08-17T02:45:22;4.75;;;3.85;;
34805;SDS011;65084;42.196;25.326;2023-08-17T02:47:49;6.25;;;3.58;;
34805;SDS011;65084;42.196;25.326;2023-08-17T02:50:18;9.32;;;3.83;;
34805;SDS011;65084;42.196;25.326;2023-08-17T02:52:45;6.15;;;3.78;;
34805;SDS011;65084;42.196;25.326;2023-08-17T02:55:13;7.50;;;4.35;;
34805;SDS011;65084;42.196;25.326;2023-08-17T02:57:40;14.13;;;4.38;;
34805;SDS011;65084;42.196;25.326;2023-08-17T03:00:07;10.18;;;3.90;;
34805;SDS011;65084;42.196;25.326;2023-08-17T03:02:35;10.07;;;4.00;;
34805;SDS011;65084;42.196;25.326;2023-08-17T03:05:02;15.10;;;3.95;;
34805;SDS011;65084;42.196;25.326;2023-08-17T03:07:31;31.10;;;5.25;;
34805;SDS011;65084;42.196;25.326;2023-08-17T03:09:58;24.38;;;4.63;;
34805;SDS011;65084;42.196;25.326;2023-08-17T03:12:26;27.17;;;5.05;;
34805;SDS011;65084;42.196;25.326;2023-08-17T03:14:53;21.50;;;5.13;;
34805;SDS011;65084;42.196;25.326;2023-08-17T03:17:20;17.58;;;5.40;;
34805;SDS011;65084;42.196;25.326;2023-08-17T03:19:47;19.20;;;5.18;;
34805;SDS011;65084;42.196;25.326;2023-08-17T03:22:15;7.32;;;4.85;;
34805;SDS011;65084;42.196;25.326;2023-08-17T03:24:43;17.85;;;5.03;;
34805;SDS011;65084;42.196;25.326;2023-08-17T03:27:11;7.95;;;4.50;;
34805;SDS011;65084;42.196;25.326;2023-08-17T03:29:38;7.55;;;4.82;;
34805;SDS011;65084;42.196;25.326;2023-08-17T03:32:05;9.38;;;5.30;;
34805;SDS011;65084;42.196;25.326;2023-08-17T03:34:32;8.23;;;4.22;;
34805;SDS011;65084;42.196;25.326;2023-08-17T03:37:00;10.35;;;4.18;;
34805;SDS011;65084;42.196;25.326;2023-08-17T03:39:27;18.40;;;4.93;;
34805;SDS011;65084;42.196;25.326;2023-08-17T03:41:56;10.57;;;4.22;;
34805;SDS011;65084;42.196;25.326;2023-08-17T03:44:23;10.32;;;4.22;;
34805;SDS011;65084;42.196;25.326;2023-08-17T03:46:50;6.68;;;4.15;;
34805;SDS011;65084;42.196;25.326;2023-08-17T03:49:18;9.20;;;4.32;;
34805;SDS011;65084;42.196;25.326;2023-08-17T03:51:45;13.15;;;4.68;;
34805;SDS011;65084;42.196;25.326;2023-08-17T03:54:12;10.57;;;4.95;;
34805;SDS011;65084;42.196;25.326;2023-08-17T03:56:40;8.60;;;4.40;;
34805;SDS011;65084;42.196;25.326;2023-08-17T03:59:08;8.80;;;4.25;;
34805;SDS011;65084;42.196;25.326;2023-08-17T04:01:36;5.10;;;4.00;;
34805;SDS011;65084;42.196;25.326;2023-08-17T04:04:03;5.65;;;4.65;;
34805;SDS011;65084;42.196;25.326;2023-08-17T04:06:30;5.38;;;4.65;;
34805;SDS011;65084;42.196;25.326;2023-08-17T04:08:58;10.90;;;4.63;;
34805;SDS011;65084;42.196;25.326;2023-08-17T04:11:25;9.55;;;5.53;;
34805;SDS011;65084;42.196;25.326;2023-08-17T04:13:53;7.05;;;4.88;;
34805;SDS011;65084;42.196;25.326;2023-08-17T04:16:21;8.57;;;5.35;;
34805;SDS011;65084;42.196;25.326;2023-08-17T04:18:49;11.70;;;4.75;;
34805;SDS011;65084;42.196;25.326;2023-08-17T04:21:16;9.35;;;4.72;;
34805;SDS011;65084;42.196;25.326;2023-08-17T04:23:43;9.23;;;5.28;;
34805;SDS011;65084;42.196;25.326;2023-08-17T04:26:10;6.97;;;4.68;;
34805;SDS011;65084;42.196;25.326;2023-08-17T04:28:38;9.38;;;5.13;;
34805;SDS011;65084;42.196;25.326;2023-08-17T04:31:05;14.15;;;5.53;;
34805;SDS011;65084;42.196;25.326;2023-08-17T04:33:34;7.63;;;5.80;;
34805;SDS011;65084;42.196;25.326;2023-08-17T04:36:01;16.17;;;5.80;;
34805;SDS011;65084;42.196;25.326;2023-08-17T04:38:28;10.98;;;6.15;;
34805;SDS011;65084;42.196;25.326;2023-08-17T04:40:55;11.52;;;5.93;;
34805;SDS011;65084;42.196;25.326;2023-08-17T04:43:23;13.13;;;5.68;;
34805;SDS011;65084;42.196;25.326;2023-08-17T04:45:50;17.42;;;6.05;;
34805;SDS011;65084;42.196;25.326;2023-08-17T04:48:17;10.40;;;6.22;;
34805;SDS011;65084;42.196;25.326;2023-08-17T04:50:46;7.55;;;6.40;;
34805;SDS011;65084;42.196;25.326;2023-08-17T04:53:14;15.15;;;7.25;;
34805;SDS011;65084;42.196;25.326;2023-08-17T04:55:41;15.35;;;7.75;;
34805;SDS011;65084;42.196;25.326;2023-08-17T04:58:08;9.88;;;6.90;;
34805;SDS011;65084;42.196;25.326;2023-08-17T05:00:36;9.70;;;6.70;;
34805;SDS011;65084;42.196;25.326;2023-08-17T05:03:04;16.35;;;7.60;;
34805;SDS011;65084;42.196;25.326;2023-08-17T05:05:31;13.25;;;8.18;;
34805;SDS011;65084;42.196;25.326;2023-08-17T05:08:02;9.55;;;7.13;;
34805;SDS011;65084;42.196;25.326;2023-08-17T05:10:29;9.48;;;7.38;;
34805;SDS011;65084;42.196;25.326;2023-08-17T05:12:56;14.25;;;7.50;;
34805;SDS011;65084;42.196;25.326;2023-08-17T05:15:24;12.95;;;7.05;;
34805;SDS011;65084;42.196;25.326;2023-08-17T05:17:51;24.45;;;7.80;;
34805;SDS011;65084;42.196;25.326;2023-08-17T05:20:18;16.90;;;8.00;;
34805;SDS011;65084;42.196;25.326;2023-08-17T05:22:46;13.75;;;8.52;;
34805;SDS011;65084;42.196;25.326;2023-08-17T05:25:14;10.07;;;7.30;;
34805;SDS011;65084;42.196;25.326;2023-08-17T05:27:42;17.55;;;7.97;;
34805;SDS011;65084;42.196;25.326;2023-08-17T05:30:09;12.27;;;7.75;;
34805;SDS011;65084;42.196;25.326;2023-08-17T05:32:36;16.80;;;8.27;;
34805;SDS011;65084;42.196;25.326;2023-08-17T05:35:04;21.40;;;7.68;;
34805;SDS011;65084;42.196;25.326;2023-08-17T05:37:31;25.00;;;8.63;;
34805;SDS011;65084;42.196;25.326;2023-08-17T05:39:58;12.80;;;7.25;;
34805;SDS011;65084;42.196;25.326;2023-08-17T05:42:27;12.32;;;7.70;;
34805;SDS011;65084;42.196;25.326;2023-08-17T05:44:54;16.42;;;6.75;;
34805;SDS011;65084;42.196;25.326;2023-08-17T05:47:22;8.35;;;6.13;;
34805;SDS011;65084;42.196;25.326;2023-08-17T05:49:49;13.90;;;5.93;;
34805;SDS011;65084;42.196;25.326;2023-08-17T05:52:16;8.25;;;5.50;;
34805;SDS011;65084;42.196;25.326;2023-08-17T05:54:43;14.05;;;5.53;;
34805;SDS011;65084;42.196;25.326;2023-08-17T05:57:11;9.07;;;5.35;;
34805;SDS011;65084;42.196;25.326;2023-08-17T05:59:39;7.95;;;5.40;;
34805;SDS011;65084;42.196;25.326;2023-08-17T06:02:07;5.65;;;5.13;;
34805;SDS011;65084;42.196;25.326;2023-08-17T06:04:34;15.05;;;5.32;;
34805;SDS011;65084;42.196;25.326;2023-08-17T06:07:01;10.00;;;5.80;;
34805;SDS011;65084;42.196;25.326;2023-08-17T06:09:28;9.02;;;5.88;;
34805;SDS011;65084;42.196;25.326;2023-08-17T06:11:56;6.57;;;5.78;;
34805;SDS011;65084;42.196;25.326;2023-08-17T06:14:23;10.40;;;6.13;;
34805;SDS011;65084;42.196;25.326;2023-08-17T06:16:52;9.88;;;6.53;;
34805;SDS011;65084;42.196;25.326;2023-08-17T06:19:19;10.52;;;5.82;;
34805;SDS011;65084;42.196;25.326;2023-08-17T06:21:46;10.93;;;6.45;;
34805;SDS011;65084;42.196;25.326;2023-08-17T06:24:14;8.38;;;5.40;;
34805;SDS011;65084;42.196;25.326;2023-08-17T06:26:41;12.50;;;6.60;;
34805;SDS011;65084;42.196;25.326;2023-08-17T06:29:08;8.25;;;6.00;;
34805;SDS011;65084;42.196;25.326;2023-08-17T06:31:35;10.18;;;6.00;;
34805;SDS011;65084;42.196;25.326;2023-08-17T06:34:04;17.88;;;6.18;;
34805;SDS011;65084;42.196;25.326;2023-08-17T06:36:31;28.27;;;6.60;;
34805;SDS011;65084;42.196;25.326;2023-08-17T06:38:59;13.57;;;6.40;;
34805;SDS011;65084;42.196;25.326;2023-08-17T06:41:27;11.52;;;6.30;;
34805;SDS011;65084;42.196;25.326;2023-08-17T06:43:55;8.45;;;5.40;;
34805;SDS011;65084;42.196;25.326;2023-08-17T06:46:22;15.00;;;6.03;;
34805;SDS011;65084;42.196;25.326;2023-08-17T06:48:49;16.38;;;5.47;;
34805;SDS011;65084;42.196;25.326;2023-08-17T06:51:18;5.90;;;4.75;;
34805;SDS011;65084;42.196;25.326;2023-08-17T06:53:45;6.10;;;5.50;;
34805;SDS011;65084;42.196;25.326;2023-08-17T06:56:13;7.38;;;4.93;;
34805;SDS011;65084;42.196;25.326;2023-08-17T06:58:40;6.47;;;4.95;;
34805;SDS011;65084;42.196;25.326;2023-08-17T07:01:07;6.97;;;4.38;;
34805;SDS011;65084;42.196;25.326;2023-08-17T07:03:34;6.20;;;4.72;;
34805;SDS011;65084;42.196;25.326;2023-08-17T07:06:02;7.55;;;4.53;;
34805;SDS011;65084;42.196;25.326;2023-08-17T07:08:31;9.63;;;4.45;;
34805;SDS011;65084;42.196;25.326;2023-08-17T07:10:58;6.32;;;4.10;;
34805;SDS011;65084;42.196;25.326;2023-08-17T07:13:26;5.82;;;4.70;;
34805;SDS011;65084;42.196;25.326;2023-08-17T07:15:53;10.10;;;4.30;;
34805;SDS011;65084;42.196;25.326;2023-08-17T07:18:21;10.45;;;5.00;;
34805;SDS011;65084;42.196;25.326;2023-08-17T07:20:48;11.32;;;4.22;;
34805;SDS011;65084;42.196;25.326;2023-08-17T07:23:16;6.40;;;3.55;;
34805;SDS011;65084;42.196;25.326;2023-08-17T07:25:44;5.30;;;3.72;;
34805;SDS011;65084;42.196;25.326;2023-08-17T07:28:12;8.65;;;4.10;;
34805;SDS011;65084;42.196;25.326;2023-08-17T07:30:40;10.88;;;6.28;;
34805;SDS011;65084;42.196;25.326;2023-08-17T07:33:07;5.63;;;5.13;;
34805;SDS011;65084;42.196;25.326;2023-08-17T07:35:35;11.88;;;5.07;;
34805;SDS011;65084;42.196;25.326;2023-08-17T07:38:02;8.15;;;5.28;;
34805;SDS011;65084;42.196;25.326;2023-08-17T07:40:30;6.40;;;4.43;;
34805;SDS011;65084;42.196;25.326;2023-08-17T07:42:59;9.23;;;4.68;;
34805;SDS011;65084;42.196;25.326;2023-08-17T07:45:27;7.72;;;4.60;;
34805;SDS011;65084;42.196;25.326;2023-08-17T07:47:54;9.32;;;4.28;;
34805;SDS011;65084;42.196;25.326;2023-08-17T07:50:21;7.53;;;3.58;;
34805;SDS011;65084;42.196;25.326;2023-08-17T07:52:49;6.90;;;4.25;;
34805;SDS011;65084;42.196;25.326;2023-08-17T07:55:16;9.98;;;3.78;;
34805;SDS011;65084;42.196;25.326;2023-08-17T07:57:43;10.45;;;4.13;;
34805;SDS011;65084;42.196;25.326;2023-08-17T08:00:12;5.88;;;4.05;;
34805;SDS011;65084;42.196;25.326;2023-08-17T08:02:40;8.63;;;3.92;;
34805;SDS011;65084;42.196;25.326;2023-08-17T08:05:07;4.75;;;3.75;;
34805;SDS011;65084;42.196;25.326;2023-08-17T08:07:34;6.82;;;3.40;;
34805;SDS011;65084;42.196;25.326;2023-08-17T08:10:02;6.35;;;3.55;;
34805;SDS011;65084;42.196;25.326;2023-08-17T08:12:29;11.73;;;3.85;;
34805;SDS011;65084;42.196;25.326;2023-08-17T08:14:56;4.63;;;3.30;;
34805;SDS011;65084;42.196;25.326;2023-08-17T08:17:25;10.00;;;3.70;;
34805;SDS011;65084;42.196;25.326;2023-08-17T08:19:52;6.57;;;3.28;;
34805;SDS011;65084;42.196;25.326;2023-08-17T08:22:20;5.78;;;3.13;;
34805;SDS011;65084;42.196;25.326;2023-08-17T08:24:47;5.70;;;3.72;;
34805;SDS011;65084;42.196;25.326;2023-08-17T08:27:14;16.48;;;3.42;;
34805;SDS011;65084;42.196;25.326;2023-08-17T08:29:42;4.20;;;3.22;;
34805;SDS011;65084;42.196;25.326;2023-08-17T08:32:09;7.43;;;3.00;;
34805;SDS011;65084;42.196;25.326;2023-08-17T08:34:38;3.65;;;2.17;;
34805;SDS011;65084;42.196;25.326;2023-08-17T08:37:05;2.58;;;1.85;;
34805;SDS011;65084;42.196;25.326;2023-08-17T08:39:32;2.20;;;1.77;;
34805;SDS011;65084;42.196;25.326;2023-08-17T08:41:59;2.13;;;1.98;;
34805;SDS011;65084;42.196;25.326;2023-08-17T08:44:27;4.90;;;1.80;;
34805;SDS011;65084;42.196;25.326;2023-08-17T08:46:54;7.93;;;1.80;;
34805;SDS011;65084;42.196;25.326;2023-08-17T08:49:23;6.10;;;2.00;;
34805;SDS011;65084;42.196;25.326;2023-08-17T08:51:53;2.67;;;2.47;;
34805;SDS011;65084;42.196;25.326;2023-08-17T08:54:24;4.28;;;2.03;;
34805;SDS011;65084;42.196;25.326;2023-08-17T08:56:54;4.53;;;2.03;;
34805;SDS011;65084;42.196;25.326;2023-08-17T08:59:21;4.43;;;1.90;;
34805;SDS011;65084;42.196;25.326;2023-08-17T09:01:52;2.65;;;2.28;;
34805;SDS011;65084;42.196;25.326;2023-08-17T09:04:19;2.30;;;2.00;;
34805;SDS011;65084;42.196;25.326;2023-08-17T09:06:46;5.80;;;2.00;;
34805;SDS011;65084;42.196;25.326;2023-08-17T09:09:16;5.03;;;2.30;;
34805;SDS011;65084;42.196;25.326;2023-08-17T09:11:43;3.72;;;2.53;;
34805;SDS011;65084;42.196;25.326;2023-08-17T09:14:11;3.13;;;2.08;;
34805;SDS011;65084;42.196;25.326;2023-08-17T09:16:38;3.25;;;2.20;;
34805;SDS011;65084;42.196;25.326;2023-08-17T09:19:05;2.88;;;2.25;;
34805;SDS011;65084;42.196;25.326;2023-08-17T09:21:33;7.95;;;3.10;;
34805;SDS011;65084;42.196;25.326;2023-08-17T09:24:00;3.58;;;2.22;;
34805;SDS011;65084;42.196;25.326;2023-08-17T09:26:31;4.80;;;2.55;;
34805;SDS011;65084;42.196;25.326;2023-08-17T09:28:59;7.68;;;2.30;;
34805;SDS011;65084;42.196;25.326;2023-08-17T09:31:27;2.28;;;2.17;;
34805;SDS011;65084;42.196;25.326;2023-08-17T09:33:58;3.08;;;2.30;;
34805;SDS011;65084;42.196;25.326;2023-08-17T09:36:25;4.65;;;2.50;;
34805;SDS011;65084;42.196;25.326;2023-08-17T09:38:53;2.53;;;2.40;;
34805;SDS011;65084;42.196;25.326;2023-08-17T09:41:21;7.10;;;2.90;;
34805;SDS011;65084;42.196;25.326;2023-08-17T09:43:50;3.28;;;2.50;;
34805;SDS011;65084;42.196;25.326;2023-08-17T09:46:17;4.53;;;2.47;;
34805;SDS011;65084;42.196;25.326;2023-08-17T09:48:45;6.85;;;3.55;;
34805;SDS011;65084;42.196;25.326;2023-08-17T09:51:14;2.65;;;2.28;;
34805;SDS011;65084;42.196;25.326;2023-08-17T09:53:42;4.75;;;2.70;;
34805;SDS011;65084;42.196;25.326;2023-08-17T09:56:09;6.63;;;3.00;;
34805;SDS011;65084;42.196;25.326;2023-08-17T09:58:37;3.30;;;2.83;;
34805;SDS011;65084;42.196;25.326;2023-08-17T10:01:06;10.85;;;2.95;;
34805;SDS011;65084;42.196;25.326;2023-08-17T10:03:34;12.40;;;2.97;;
34805;SDS011;65084;42.196;25.326;2023-08-17T10:06:04;4.43;;;2.60;;
34805;SDS011;65084;42.196;25.326;2023-08-17T10:08:32;3.67;;;2.80;;
34805;SDS011;65084;42.196;25.326;2023-08-17T10:11:00;3.58;;;3.28;;
34805;SDS011;65084;42.196;25.326;2023-08-17T10:13:31;6.93;;;2.75;;
34805;SDS011;65084;42.196;25.326;2023-08-17T10:16:02;3.28;;;2.58;;
34805;SDS011;65084;42.196;25.326;2023-08-17T10:18:34;11.35;;;2.65;;
34805;SDS011;65084;42.196;25.326;2023-08-17T10:21:06;8.15;;;2.58;;
34805;SDS011;65084;42.196;25.326;2023-08-17T10:23:34;2.75;;;2.50;;
34805;SDS011;65084;42.196;25.326;2023-08-17T10:26:02;5.88;;;2.78;;
34805;SDS011;65084;42.196;25.326;2023-08-17T10:28:29;8.85;;;3.05;;
34805;SDS011;65084;42.196;25.326;2023-08-17T10:30:58;5.57;;;2.95;;
34805;SDS011;65084;42.196;25.326;2023-08-17T10:33:25;3.20;;;2.80;;
34805;SDS011;65084;42.196;25.326;2023-08-17T10:35:55;7.30;;;2.53;;
34805;SDS011;65084;42.196;25.326;2023-08-17T10:38:22;4.05;;;2.80;;
34805;SDS011;65084;42.196;25.326;2023-08-17T10:43:32;5.72;;;2.38;;
34805;SDS011;65084;42.196;25.326;2023-08-17T10:46:12;10.73;;;3.42;;
34805;SDS011;65084;42.196;25.326;2023-08-17T10:48:43;6.55;;;2.35;;
34805;SDS011;65084;42.196;25.326;2023-08-17T10:51:11;2.63;;;2.42;;
34805;SDS011;65084;42.196;25.326;2023-08-17T10:53:40;4.78;;;2.38;;
34805;SDS011;65084;42.196;25.326;2023-08-17T10:56:12;12.63;;;2.90;;
34805;SDS011;65084;42.196;25.326;2023-08-17T10:58:42;6.80;;;2.33;;
34805;SDS011;65084;42.196;25.326;2023-08-17T11:01:09;6.55;;;2.20;;
34805;SDS011;65084;42.196;25.326;2023-08-17T11:03:39;10.25;;;2.05;;
34805;SDS011;65084;42.196;25.326;2023-08-17T11:06:16;3.55;;;2.33;;
34805;SDS011;65084;42.196;25.326;2023-08-17T11:08:51;5.55;;;2.13;;
34805;SDS011;65084;42.196;25.326;2023-08-17T11:11:19;2.80;;;2.17;;
34805;SDS011;65084;42.196;25.326;2023-08-17T11:13:47;2.45;;;2.20;;
34805;SDS011;65084;42.196;25.326;2023-08-17T11:16:15;9.10;;;2.88;;
34805;SDS011;65084;42.196;25.326;2023-08-17T11:18:44;6.78;;;2.55;;
34805;SDS011;65084;42.196;25.326;2023-08-17T11:21:11;8.00;;;2.40;;
34805;SDS011;65084;42.196;25.326;2023-08-17T11:23:41;2.38;;;2.10;;
34805;SDS011;65084;42.196;25.326;2023-08-17T11:26:08;11.68;;;2.47;;
34805;SDS011;65084;42.196;25.326;2023-08-17T11:28:36;5.28;;;2.17;;
34805;SDS011;65084;42.196;25.326;2023-08-17T11:31:05;2.17;;;2.08;;
34805;SDS011;65084;42.196;25.326;2023-08-17T11:33:33;3.15;;;2.22;;
34805;SDS011;65084;42.196;25.326;2023-08-17T11:36:01;4.82;;;2.70;;
34805;SDS011;65084;42.196;25.326;2023-08-17T11:38:30;4.35;;;2.60;;
34805;SDS011;65084;42.196;25.326;2023-08-17T11:40:59;4.80;;;2.40;;
34805;SDS011;65084;42.196;25.326;2023-08-17T11:43:26;6.28;;;2.60;;
34805;SDS011;65084;42.196;25.326;2023-08-17T11:45:54;2.35;;;2.20;;
34805;SDS011;65084;42.196;25.326;2023-08-17T11:48:22;6.90;;;2.20;;
34805;SDS011;65084;42.196;25.326;2023-08-17T11:50:51;3.35;;;2.67;;
34805;SDS011;65084;42.196;25.326;2023-08-17T11:53:19;4.82;;;2.53;;
34805;SDS011;65084;42.196;25.326;2023-08-17T11:55:46;4.85;;;2.70;;
34805;SDS011;65084;42.196;25.326;2023-08-17T11:58:15;6.03;;;2.35;;
34805;SDS011;65084;42.196;25.326;2023-08-17T12:00:42;5.55;;;3.22;;
34805;SDS011;65084;42.196;25.326;2023-08-17T12:03:13;5.70;;;2.83;;
34805;SDS011;65084;42.196;25.326;2023-08-17T12:05:41;5.07;;;2.45;;
34805;SDS011;65084;42.196;25.326;2023-08-17T12:08:08;3.63;;;2.58;;
34805;SDS011;65084;42.196;25.326;2023-08-17T12:10:36;3.40;;;2.58;;
34805;SDS011;65084;42.196;25.326;2023-08-17T12:13:04;7.25;;;3.08;;
34805;SDS011;65084;42.196;25.326;2023-08-17T12:15:33;12.18;;;2.80;;
34805;SDS011;65084;42.196;25.326;2023-08-17T12:18:01;3.60;;;2.63;;
34805;SDS011;65084;42.196;25.326;2023-08-17T12:20:29;5.22;;;2.97;;
34805;SDS011;65084;42.196;25.326;2023-08-17T12:22:57;9.57;;;2.78;;
34805;SDS011;65084;42.196;25.326;2023-08-17T12:25:24;3.10;;;2.58;;
34805;SDS011;65084;42.196;25.326;2023-08-17T12:27:58;8.90;;;3.10;;
34805;SDS011;65084;42.196;25.326;2023-08-17T12:30:27;12.63;;;3.00;;
34805;SDS011;65084;42.196;25.326;2023-08-17T12:32:56;8.45;;;3.25;;
34805;SDS011;65084;42.196;25.326;2023-08-17T12:35:23;6.05;;;2.80;;
34805;SDS011;65084;42.196;25.326;2023-08-17T12:37:50;2.88;;;2.67;;
34805;SDS011;65084;42.196;25.326;2023-08-17T12:40:18;3.85;;;2.97;;
34805;SDS011;65084;42.196;25.326;2023-08-17T12:42:45;3.85;;;2.25;;
34805;SDS011;65084;42.196;25.326;2023-08-17T12:45:13;11.50;;;2.80;;
34805;SDS011;65084;42.196;25.326;2023-08-17T12:47:40;3.10;;;2.80;;
34805;SDS011;65084;42.196;25.326;2023-08-17T12:50:09;5.72;;;3.25;;
34805;SDS011;65084;42.196;25.326;2023-08-17T12:52:36;8.90;;;2.95;;
34805;SDS011;65084;42.196;25.326;2023-08-17T12:55:04;4.15;;;3.05;;
34805;SDS011;65084;42.196;25.326;2023-08-17T12:57:31;9.07;;;3.05;;
34805;SDS011;65084;42.196;25.326;2023-08-17T12:59:59;6.85;;;3.50;;
34805;SDS011;65084;42.196;25.326;2023-08-17T13:02:26;6.80;;;2.92;;
34805;SDS011;65084;42.196;25.326;2023-08-17T13:04:53;3.30;;;3.00;;
34805;SDS011;65084;42.196;25.326;2023-08-17T13:07:22;10.07;;;3.40;;
34805;SDS011;65084;42.196;25.326;2023-08-17T13:09:49;4.47;;;3.30;;
34805;SDS011;65084;42.196;25.326;2023-08-17T13:12:16;3.47;;;2.65;;
34805;SDS011;65084;42.196;25.326;2023-08-17T13:14:44;10.52;;;3.45;;
34805;SDS011;65084;42.196;25.326;2023-08-17T13:17:11;7.28;;;3.35;;
34805;SDS011;65084;42.196;25.326;2023-08-17T13:19:41;5.60;;;3.13;;
34805;SDS011;65084;42.196;25.326;2023-08-17T13:22:09;4.13;;;3.03;;
34805;SDS011;65084;42.196;25.326;2023-08-17T13:24:37;4.70;;;3.20;;
34805;SDS011;65084;42.196;25.326;2023-08-17T13:27:05;11.35;;;3.35;;
34805;SDS011;65084;42.196;25.326;2023-08-17T13:29:32;3.55;;;3.08;;
34805;SDS011;65084;42.196;25.326;2023-08-17T13:32:00;3.85;;;3.08;;
34805;SDS011;65084;42.196;25.326;2023-08-17T13:34:28;6.63;;;3.15;;
34805;SDS011;65084;42.196;25.326;2023-08-17T13:36:55;16.80;;;3.13;;
34805;SDS011;65084;42.196;25.326;2023-08-17T13:39:22;6.38;;;3.03;;
34805;SDS011;65084;42.196;25.326;2023-08-17T13:41:51;4.00;;;3.40;;
34805;SDS011;65084;42.196;25.326;2023-08-17T13:44:18;6.57;;;3.58;;
34805;SDS011;65084;42.196;25.326;2023-08-17T13:46:45;9.70;;;3.67;;
34805;SDS011;65084;42.196;25.326;2023-08-17T13:49:13;11.68;;;3.75;;
34805;SDS011;65084;42.196;25.326;2023-08-17T13:51:40;10.00;;;3.67;;
34805;SDS011;65084;42.196;25.326;2023-08-17T13:54:07;4.40;;;3.13;;
34805;SDS011;65084;42.196;25.326;2023-08-17T13:56:34;5.03;;;3.38;;
34805;SDS011;65084;42.196;25.326;2023-08-17T13:59:03;6.63;;;3.63;;
34805;SDS011;65084;42.196;25.326;2023-08-17T14:01:30;5.07;;;3.40;;
34805;SDS011;65084;42.196;25.326;2023-08-17T14:03:58;7.88;;;3.35;;
34805;SDS011;65084;42.196;25.326;2023-08-17T14:06:25;4.43;;;3.40;;
34805;SDS011;65084;42.196;25.326;2023-08-17T14:08:52;9.07;;;3.53;;
34805;SDS011;65084;42.196;25.326;2023-08-17T14:11:19;8.50;;;3.30;;
34805;SDS011;65084;42.196;25.326;2023-08-17T14:13:47;12.98;;;3.30;;
34805;SDS011;65084;42.196;25.326;2023-08-17T14:16:15;8.80;;;3.65;;
34805;SDS011;65084;42.196;25.326;2023-08-17T14:18:43;5.68;;;3.65;;
34805;SDS011;65084;42.196;25.326;2023-08-17T14:21:10;5.20;;;3.72;;
34805;SDS011;65084;42.196;25.326;2023-08-17T14:23:37;10.40;;;3.72;;
34805;SDS011;65084;42.196;25.326;2023-08-17T14:26:05;7.18;;;4.03;;
34805;SDS011;65084;42.196;25.326;2023-08-17T14:28:32;5.20;;;3.70;;
34805;SDS011;65084;42.196;25.326;2023-08-17T14:31:00;8.60;;;3.70;;
34805;SDS011;65084;42.196;25.326;2023-08-17T14:33:28;10.65;;;3.88;;
34805;SDS011;65084;42.196;25.326;2023-08-17T14:35:56;4.38;;;3.85;;